sensor_id;sensor_type;location;lat;lon;timestamp;P1;durP1;ratioP1;P2;durP2;ratioP2
76196;SDS011;64974;53.144;17.962;2023-11-21T00:00:15;11.50;;;5.15;;
76196;SDS011;64974;53.144;17.962;2023-11-21T00:02:43;11.00;;;5.13;;
76196;SDS011;64974;53.144;17.962;2023-11-21T00:05:11;10.77;;;5.03;;
76196;SDS011;64974;53.144;17.962;2023-11-21T00:07:40;7.93;;;4.38;;
76196;SDS011;64974;53.144;17.962;2023-11-21T00:10:07;10.32;;;5.30;;
76196;SDS011;64974;53.144;17.962;2023-11-21T00:12:37;9.88;;;4.82;;
76196;SDS011;64974;53.144;17.962;2023-11-21T00:15:07;8.90;;;4.50;;
76196;SDS011;64974;53.144;17.962;2023-11-21T00:17:35;9.35;;;4.53;;
76196;SDS011;64974;53.144;17.962;2023-11-21T00:20:02;10.80;;;5.22;;
76196;SDS011;64974;53.144;17.962;2023-11-21T00:22:31;10.18;;;5.57;;
76196;SDS011;64974;53.144;17.962;2023-11-21T00:24:59;11.88;;;5.68;;
76196;SDS011;64974;53.144;17.962;2023-11-21T00:27:26;13.15;;;5.13;;
76196;SDS011;64974;53.144;17.962;2023-11-21T00:29:52;8.48;;;4.53;;
76196;SDS011;64974;53.144;17.962;2023-11-21T00:34:45;8.32;;;3.90;;
76196;SDS011;64974;53.144;17.962;2023-11-21T00:37:12;8.38;;;4.53;;
76196;SDS011;64974;53.144;17.962;2023-11-21T00:39:38;9.55;;;4.63;;
76196;SDS011;64974;53.144;17.962;2023-11-21T00:42:06;9.40;;;4.85;;
76196;SDS011;64974;53.144;17.962;2023-11-21T00:44:33;10.38;;;5.28;;
76196;SDS011;64974;53.144;17.962;2023-11-21T00:47:01;10.27;;;4.50;;
76196;SDS011;64974;53.144;17.962;2023-11-21T00:49:28;11.25;;;4.72;;
76196;SDS011;64974;53.144;17.962;2023-11-21T00:51:55;13.43;;;5.70;;
76196;SDS011;64974;53.144;17.962;2023-11-21T00:54:23;10.50;;;4.75;;
76196;SDS011;64974;53.144;17.962;2023-11-21T00:59:17;8.57;;;4.22;;
76196;SDS011;64974;53.144;17.962;2023-11-21T01:01:43;10.65;;;4.82;;
76196;SDS011;64974;53.144;17.962;2023-11-21T01:04:10;9.10;;;4.97;;
76196;SDS011;64974;53.144;17.962;2023-11-21T01:09:03;8.60;;;4.03;;
76196;SDS011;64974;53.144;17.962;2023-11-21T01:11:33;7.65;;;3.83;;
76196;SDS011;64974;53.144;17.962;2023-11-21T01:14:03;8.68;;;4.07;;
76196;SDS011;64974;53.144;17.962;2023-11-21T01:16:31;8.50;;;4.28;;
76196;SDS011;64974;53.144;17.962;2023-11-21T01:18:57;10.40;;;4.55;;
76196;SDS011;64974;53.144;17.962;2023-11-21T01:21:24;9.52;;;4.70;;
76196;SDS011;64974;53.144;17.962;2023-11-21T01:23:50;7.50;;;4.15;;
76196;SDS011;64974;53.144;17.962;2023-11-21T01:26:17;8.07;;;4.47;;
76196;SDS011;64974;53.144;17.962;2023-11-21T01:28:43;9.05;;;4.50;;
76196;SDS011;64974;53.144;17.962;2023-11-21T01:36:57;10.20;;;3.92;;
76196;SDS011;64974;53.144;17.962;2023-11-21T01:39:24;11.02;;;5.55;;
76196;SDS011;64974;53.144;17.962;2023-11-21T01:41:51;10.57;;;4.78;;
76196;SDS011;64974;53.144;17.962;2023-11-21T01:46:45;10.23;;;4.40;;
76196;SDS011;64974;53.144;17.962;2023-11-21T01:49:12;8.88;;;4.75;;
76196;SDS011;64974;53.144;17.962;2023-11-21T01:51:40;11.45;;;5.78;;
76196;SDS011;64974;53.144;17.962;2023-11-21T01:54:08;12.02;;;4.93;;
76196;SDS011;64974;53.144;17.962;2023-11-21T01:56:36;10.70;;;4.80;;
76196;SDS011;64974;53.144;17.962;2023-11-21T01:59:04;8.93;;;4.57;;
76196;SDS011;64974;53.144;17.962;2023-11-21T02:01:32;10.13;;;5.25;;
76196;SDS011;64974;53.144;17.962;2023-11-21T02:06:27;9.35;;;4.55;;
76196;SDS011;64974;53.144;17.962;2023-11-21T02:08:56;10.82;;;5.10;;
76196;SDS011;64974;53.144;17.962;2023-11-21T02:11:26;9.65;;;4.40;;
76196;SDS011;64974;53.144;17.962;2023-11-21T02:13:52;8.75;;;4.32;;
76196;SDS011;64974;53.144;17.962;2023-11-21T02:16:19;9.30;;;4.38;;
76196;SDS011;64974;53.144;17.962;2023-11-21T02:21:13;10.73;;;4.43;;
76196;SDS011;64974;53.144;17.962;2023-11-21T02:23:41;10.65;;;4.57;;
76196;SDS011;64974;53.144;17.962;2023-11-21T02:26:09;10.77;;;5.35;;
76196;SDS011;64974;53.144;17.962;2023-11-21T02:28:36;10.57;;;4.85;;
76196;SDS011;64974;53.144;17.962;2023-11-21T02:31:03;13.60;;;5.47;;
76196;SDS011;64974;53.144;17.962;2023-11-21T02:33:30;11.95;;;5.72;;
76196;SDS011;64974;53.144;17.962;2023-11-21T02:35:58;10.32;;;4.82;;
76196;SDS011;64974;53.144;17.962;2023-11-21T02:38:25;13.55;;;5.70;;
76196;SDS011;64974;53.144;17.962;2023-11-21T02:40:53;12.00;;;5.40;;
76196;SDS011;64974;53.144;17.962;2023-11-21T02:43:19;11.85;;;5.22;;
76196;SDS011;64974;53.144;17.962;2023-11-21T02:45:46;16.40;;;6.78;;
76196;SDS011;64974;53.144;17.962;2023-11-21T02:48:12;15.25;;;6.82;;
76196;SDS011;64974;53.144;17.962;2023-11-21T02:53:05;11.38;;;5.50;;
76196;SDS011;64974;53.144;17.962;2023-11-21T02:55:32;13.40;;;6.05;;
76196;SDS011;64974;53.144;17.962;2023-11-21T02:58:01;12.85;;;5.68;;
76196;SDS011;64974;53.144;17.962;2023-11-21T03:00:28;11.55;;;5.72;;
76196;SDS011;64974;53.144;17.962;2023-11-21T03:02:55;13.27;;;5.72;;
76196;SDS011;64974;53.144;17.962;2023-11-21T03:05:22;15.30;;;6.93;;
76196;SDS011;64974;53.144;17.962;2023-11-21T03:07:48;13.00;;;6.82;;
76196;SDS011;64974;53.144;17.962;2023-11-21T03:10:15;13.45;;;6.30;;
76196;SDS011;64974;53.144;17.962;2023-11-21T03:12:41;14.55;;;7.13;;
76196;SDS011;64974;53.144;17.962;2023-11-21T03:15:11;13.30;;;6.18;;
76196;SDS011;64974;53.144;17.962;2023-11-21T03:17:37;12.25;;;6.03;;
76196;SDS011;64974;53.144;17.962;2023-11-21T03:20:04;13.15;;;6.03;;
76196;SDS011;64974;53.144;17.962;2023-11-21T03:22:35;14.13;;;6.22;;
76196;SDS011;64974;53.144;17.962;2023-11-21T03:25:02;14.88;;;6.65;;
76196;SDS011;64974;53.144;17.962;2023-11-21T03:27:29;14.07;;;6.18;;
76196;SDS011;64974;53.144;17.962;2023-11-21T03:29:56;13.85;;;6.57;;
76196;SDS011;64974;53.144;17.962;2023-11-21T03:32:24;13.20;;;6.32;;
76196;SDS011;64974;53.144;17.962;2023-11-21T03:34:54;15.95;;;6.70;;
76196;SDS011;64974;53.144;17.962;2023-11-21T03:37:22;15.93;;;7.13;;
76196;SDS011;64974;53.144;17.962;2023-11-21T03:39:49;14.95;;;6.80;;
76196;SDS011;64974;53.144;17.962;2023-11-21T03:44:42;14.90;;;5.95;;
76196;SDS011;64974;53.144;17.962;2023-11-21T03:49:37;12.02;;;6.05;;
76196;SDS011;64974;53.144;17.962;2023-11-21T03:52:03;14.63;;;6.75;;
76196;SDS011;64974;53.144;17.962;2023-11-21T03:54:29;15.07;;;6.60;;
76196;SDS011;64974;53.144;17.962;2023-11-21T03:56:56;14.10;;;6.57;;
76196;SDS011;64974;53.144;17.962;2023-11-21T03:59:22;15.45;;;7.05;;
76196;SDS011;64974;53.144;17.962;2023-11-21T04:04:16;13.63;;;5.88;;
76196;SDS011;64974;53.144;17.962;2023-11-21T04:06:43;14.77;;;6.53;;
76196;SDS011;64974;53.144;17.962;2023-11-21T04:09:10;13.20;;;7.30;;
76196;SDS011;64974;53.144;17.962;2023-11-21T04:11:37;14.50;;;6.60;;
76196;SDS011;64974;53.144;17.962;2023-11-21T04:14:04;14.50;;;6.10;;
76196;SDS011;64974;53.144;17.962;2023-11-21T04:16:30;16.20;;;6.90;;
76196;SDS011;64974;53.144;17.962;2023-11-21T04:18:58;17.58;;;7.32;;
76196;SDS011;64974;53.144;17.962;2023-11-21T04:21:25;16.60;;;7.47;;
76196;SDS011;64974;53.144;17.962;2023-11-21T04:23:53;13.82;;;7.05;;
76196;SDS011;64974;53.144;17.962;2023-11-21T04:26:19;17.30;;;6.45;;
76196;SDS011;64974;53.144;17.962;2023-11-21T04:28:46;16.77;;;6.88;;
76196;SDS011;64974;53.144;17.962;2023-11-21T04:31:13;14.35;;;6.35;;
76196;SDS011;64974;53.144;17.962;2023-11-21T04:33:39;15.05;;;6.68;;
76196;SDS011;64974;53.144;17.962;2023-11-21T04:36:06;15.48;;;6.10;;
76196;SDS011;64974;53.144;17.962;2023-11-21T04:38:33;18.95;;;7.72;;
76196;SDS011;64974;53.144;17.962;2023-11-21T04:41:01;14.00;;;6.57;;
76196;SDS011;64974;53.144;17.962;2023-11-21T04:43:27;16.08;;;6.68;;
76196;SDS011;64974;53.144;17.962;2023-11-21T04:45:54;12.95;;;6.25;;
76196;SDS011;64974;53.144;17.962;2023-11-21T04:48:21;15.40;;;5.97;;
76196;SDS011;64974;53.144;17.962;2023-11-21T04:50:47;15.98;;;6.13;;
76196;SDS011;64974;53.144;17.962;2023-11-21T04:53:14;14.43;;;5.72;;
76196;SDS011;64974;53.144;17.962;2023-11-21T04:55:41;14.18;;;6.10;;
76196;SDS011;64974;53.144;17.962;2023-11-21T05:00:36;16.75;;;5.60;;
76196;SDS011;64974;53.144;17.962;2023-11-21T05:03:02;14.90;;;5.65;;
76196;SDS011;64974;53.144;17.962;2023-11-21T05:05:29;14.05;;;5.75;;
76196;SDS011;64974;53.144;17.962;2023-11-21T05:07:56;14.73;;;6.50;;
76196;SDS011;64974;53.144;17.962;2023-11-21T05:10:23;13.07;;;6.20;;
76196;SDS011;64974;53.144;17.962;2023-11-21T05:12:49;14.38;;;6.57;;
76196;SDS011;64974;53.144;17.962;2023-11-21T05:15:17;16.58;;;6.70;;
76196;SDS011;64974;53.144;17.962;2023-11-21T05:17:44;13.57;;;6.32;;
76196;SDS011;64974;53.144;17.962;2023-11-21T05:20:11;14.63;;;6.57;;
76196;SDS011;64974;53.144;17.962;2023-11-21T05:22:38;15.25;;;6.45;;
76196;SDS011;64974;53.144;17.962;2023-11-21T05:25:05;15.85;;;5.68;;
76196;SDS011;64974;53.144;17.962;2023-11-21T05:27:33;16.80;;;6.75;;
76196;SDS011;64974;53.144;17.962;2023-11-21T05:30:00;14.82;;;6.75;;
76196;SDS011;64974;53.144;17.962;2023-11-21T05:32:28;12.20;;;5.97;;
76196;SDS011;64974;53.144;17.962;2023-11-21T05:34:55;15.77;;;6.65;;
76196;SDS011;64974;53.144;17.962;2023-11-21T05:37:22;17.42;;;6.30;;
76196;SDS011;64974;53.144;17.962;2023-11-21T05:39:48;14.80;;;6.45;;
76196;SDS011;64974;53.144;17.962;2023-11-21T05:42:15;16.08;;;6.90;;
76196;SDS011;64974;53.144;17.962;2023-11-21T05:44:42;13.45;;;6.65;;
76196;SDS011;64974;53.144;17.962;2023-11-21T05:47:09;12.30;;;6.30;;
76196;SDS011;64974;53.144;17.962;2023-11-21T05:49:37;11.73;;;6.43;;
76196;SDS011;64974;53.144;17.962;2023-11-21T05:52:03;13.65;;;6.13;;
76196;SDS011;64974;53.144;17.962;2023-11-21T05:54:31;14.73;;;5.93;;
76196;SDS011;64974;53.144;17.962;2023-11-21T05:59:24;12.10;;;5.82;;
76196;SDS011;64974;53.144;17.962;2023-11-21T06:01:50;17.85;;;7.15;;
76196;SDS011;64974;53.144;17.962;2023-11-21T06:04:17;17.42;;;6.82;;
76196;SDS011;64974;53.144;17.962;2023-11-21T06:06:57;20.63;;;7.68;;
76196;SDS011;64974;53.144;17.962;2023-11-21T06:09:25;16.88;;;7.28;;
76196;SDS011;64974;53.144;17.962;2023-11-21T06:14:54;12.05;;;5.88;;
76196;SDS011;64974;53.144;17.962;2023-11-21T06:17:29;16.63;;;5.97;;
76196;SDS011;64974;53.144;17.962;2023-11-21T06:19:57;14.13;;;6.18;;
76196;SDS011;64974;53.144;17.962;2023-11-21T06:22:24;13.35;;;5.03;;
76196;SDS011;64974;53.144;17.962;2023-11-21T06:24:53;13.57;;;5.72;;
76196;SDS011;64974;53.144;17.962;2023-11-21T06:27:28;13.35;;;5.47;;
76196;SDS011;64974;53.144;17.962;2023-11-21T06:29:55;14.52;;;5.47;;
76196;SDS011;64974;53.144;17.962;2023-11-21T06:32:22;14.50;;;5.75;;
76196;SDS011;64974;53.144;17.962;2023-11-21T06:34:55;12.95;;;5.85;;
76196;SDS011;64974;53.144;17.962;2023-11-21T06:37:26;10.43;;;5.15;;
76196;SDS011;64974;53.144;17.962;2023-11-21T06:39:53;13.52;;;6.00;;
76196;SDS011;64974;53.144;17.962;2023-11-21T06:42:19;12.70;;;5.32;;
76196;SDS011;64974;53.144;17.962;2023-11-21T06:44:48;13.18;;;5.90;;
76196;SDS011;64974;53.144;17.962;2023-11-21T06:47:24;11.68;;;5.75;;
76196;SDS011;64974;53.144;17.962;2023-11-21T06:49:51;12.80;;;6.07;;
76196;SDS011;64974;53.144;17.962;2023-11-21T06:52:20;12.48;;;5.35;;
76196;SDS011;64974;53.144;17.962;2023-11-21T06:54:50;13.70;;;5.47;;
76196;SDS011;64974;53.144;17.962;2023-11-21T06:57:17;17.40;;;5.85;;
76196;SDS011;64974;53.144;17.962;2023-11-21T06:59:43;13.57;;;5.88;;
76196;SDS011;64974;53.144;17.962;2023-11-21T07:02:10;14.68;;;6.22;;
76196;SDS011;64974;53.144;17.962;2023-11-21T07:07:04;14.88;;;5.65;;
76196;SDS011;64974;53.144;17.962;2023-11-21T07:09:32;13.43;;;5.35;;
76196;SDS011;64974;53.144;17.962;2023-11-21T07:12:00;12.70;;;5.72;;
76196;SDS011;64974;53.144;17.962;2023-11-21T07:14:29;11.52;;;5.88;;
76196;SDS011;64974;53.144;17.962;2023-11-21T07:17:02;13.00;;;4.55;;
76196;SDS011;64974;53.144;17.962;2023-11-21T07:19:48;12.82;;;5.20;;
76196;SDS011;64974;53.144;17.962;2023-11-21T07:22:29;14.07;;;5.50;;
76196;SDS011;64974;53.144;17.962;2023-11-21T07:24:56;15.07;;;5.90;;
76196;SDS011;64974;53.144;17.962;2023-11-21T07:27:24;10.25;;;4.22;;
76196;SDS011;64974;53.144;17.962;2023-11-21T07:29:50;9.73;;;4.53;;
76196;SDS011;64974;53.144;17.962;2023-11-21T07:32:19;14.02;;;5.15;;
76196;SDS011;64974;53.144;17.962;2023-11-21T07:34:46;9.00;;;4.13;;
76196;SDS011;64974;53.144;17.962;2023-11-21T07:37:32;9.52;;;4.13;;
76196;SDS011;64974;53.144;17.962;2023-11-21T07:39:59;8.55;;;4.18;;
76196;SDS011;64974;53.144;17.962;2023-11-21T07:42:29;10.80;;;4.28;;
76196;SDS011;64974;53.144;17.962;2023-11-21T07:44:58;11.00;;;4.25;;
76196;SDS011;64974;53.144;17.962;2023-11-21T07:47:25;8.57;;;3.58;;
76196;SDS011;64974;53.144;17.962;2023-11-21T07:49:53;10.13;;;4.47;;
76196;SDS011;64974;53.144;17.962;2023-11-21T07:52:22;18.60;;;8.32;;
76196;SDS011;64974;53.144;17.962;2023-11-21T07:54:49;16.60;;;6.45;;
76196;SDS011;64974;53.144;17.962;2023-11-21T07:57:15;23.00;;;10.35;;
76196;SDS011;64974;53.144;17.962;2023-11-21T07:59:44;17.63;;;9.70;;
76196;SDS011;64974;53.144;17.962;2023-11-21T08:02:12;36.75;;;21.23;;
76196;SDS011;64974;53.144;17.962;2023-11-21T08:04:41;13.85;;;9.18;;
76196;SDS011;64974;53.144;17.962;2023-11-21T08:07:09;12.27;;;5.57;;
76196;SDS011;64974;53.144;17.962;2023-11-21T08:09:36;13.25;;;5.57;;
76196;SDS011;64974;53.144;17.962;2023-11-21T08:12:04;12.77;;;5.65;;
76196;SDS011;64974;53.144;17.962;2023-11-21T08:14:32;11.10;;;5.22;;
76196;SDS011;64974;53.144;17.962;2023-11-21T08:19:35;10.52;;;4.95;;
76196;SDS011;64974;53.144;17.962;2023-11-21T08:22:03;13.15;;;7.60;;
76196;SDS011;64974;53.144;17.962;2023-11-21T08:24:29;20.77;;;16.00;;
76196;SDS011;64974;53.144;17.962;2023-11-21T08:26:56;14.63;;;8.43;;
76196;SDS011;64974;53.144;17.962;2023-11-21T08:29:30;14.25;;;7.05;;
76196;SDS011;64974;53.144;17.962;2023-11-21T08:32:20;12.52;;;5.97;;
76196;SDS011;64974;53.144;17.962;2023-11-21T08:34:51;10.45;;;4.88;;
76196;SDS011;64974;53.144;17.962;2023-11-21T08:40:05;10.30;;;4.45;;
76196;SDS011;64974;53.144;17.962;2023-11-21T08:42:34;9.93;;;4.18;;
76196;SDS011;64974;53.144;17.962;2023-11-21T08:47:28;12.43;;;5.03;;
76196;SDS011;64974;53.144;17.962;2023-11-21T08:49:55;9.93;;;5.38;;
76196;SDS011;64974;53.144;17.962;2023-11-21T08:52:24;9.07;;;5.20;;
76196;SDS011;64974;53.144;17.962;2023-11-21T08:54:51;11.02;;;5.82;;
76196;SDS011;64974;53.144;17.962;2023-11-21T08:57:21;12.40;;;6.53;;
76196;SDS011;64974;53.144;17.962;2023-11-21T08:59:47;10.68;;;5.80;;
76196;SDS011;64974;53.144;17.962;2023-11-21T09:02:20;7.97;;;4.43;;
76196;SDS011;64974;53.144;17.962;2023-11-21T09:05:04;10.38;;;5.15;;
76196;SDS011;64974;53.144;17.962;2023-11-21T09:07:32;12.25;;;6.00;;
76196;SDS011;64974;53.144;17.962;2023-11-21T09:09:59;11.88;;;5.68;;
76196;SDS011;64974;53.144;17.962;2023-11-21T09:12:26;10.05;;;5.55;;
76196;SDS011;64974;53.144;17.962;2023-11-21T09:14:53;9.23;;;5.43;;
76196;SDS011;64974;53.144;17.962;2023-11-21T09:17:20;10.65;;;5.22;;
76196;SDS011;64974;53.144;17.962;2023-11-21T09:22:18;10.63;;;5.63;;
76196;SDS011;64974;53.144;17.962;2023-11-21T09:24:46;15.27;;;5.97;;
76196;SDS011;64974;53.144;17.962;2023-11-21T09:27:13;14.50;;;6.70;;
76196;SDS011;64974;53.144;17.962;2023-11-21T09:29:42;13.57;;;7.32;;
76196;SDS011;64974;53.144;17.962;2023-11-21T09:32:18;12.18;;;8.55;;
76196;SDS011;64974;53.144;17.962;2023-11-21T09:34:46;14.02;;;7.32;;
76196;SDS011;64974;53.144;17.962;2023-11-21T09:37:14;12.48;;;7.53;;
76196;SDS011;64974;53.144;17.962;2023-11-21T09:39:44;15.70;;;8.90;;
76196;SDS011;64974;53.144;17.962;2023-11-21T09:42:13;14.75;;;6.28;;
76196;SDS011;64974;53.144;17.962;2023-11-21T09:52:28;17.17;;;8.48;;
76196;SDS011;64974;53.144;17.962;2023-11-21T09:54:59;16.15;;;7.75;;
76196;SDS011;64974;53.144;17.962;2023-11-21T09:57:27;14.45;;;7.55;;
76196;SDS011;64974;53.144;17.962;2023-11-21T09:59:54;15.63;;;8.07;;
76196;SDS011;64974;53.144;17.962;2023-11-21T10:02:26;16.92;;;7.57;;
76196;SDS011;64974;53.144;17.962;2023-11-21T10:04:57;20.38;;;11.60;;
76196;SDS011;64974;53.144;17.962;2023-11-21T10:07:28;20.27;;;9.63;;
76196;SDS011;64974;53.144;17.962;2023-11-21T10:09:55;20.65;;;10.23;;
76196;SDS011;64974;53.144;17.962;2023-11-21T10:12:32;42.45;;;19.45;;
76196;SDS011;64974;53.144;17.962;2023-11-21T10:15:00;26.52;;;12.32;;
76196;SDS011;64974;53.144;17.962;2023-11-21T10:17:27;17.27;;;9.23;;
76196;SDS011;64974;53.144;17.962;2023-11-21T10:20:08;12.57;;;6.68;;
76196;SDS011;64974;53.144;17.962;2023-11-21T10:22:44;13.38;;;6.53;;
76196;SDS011;64974;53.144;17.962;2023-11-21T10:25:21;16.50;;;7.72;;
76196;SDS011;64974;53.144;17.962;2023-11-21T10:27:59;13.25;;;7.90;;
76196;SDS011;64974;53.144;17.962;2023-11-21T10:30:34;18.85;;;9.40;;
76196;SDS011;64974;53.144;17.962;2023-11-21T10:33:11;18.67;;;8.73;;
76196;SDS011;64974;53.144;17.962;2023-11-21T10:35:44;17.17;;;10.45;;
76196;SDS011;64974;53.144;17.962;2023-11-21T10:38:15;26.63;;;12.07;;
76196;SDS011;64974;53.144;17.962;2023-11-21T10:40:42;26.98;;;11.43;;
76196;SDS011;64974;53.144;17.962;2023-11-21T10:43:11;20.58;;;9.23;;
76196;SDS011;64974;53.144;17.962;2023-11-21T10:45:38;49.80;;;13.23;;
76196;SDS011;64974;53.144;17.962;2023-11-21T10:48:05;31.95;;;9.73;;
76196;SDS011;64974;53.144;17.962;2023-11-21T10:50:33;18.10;;;8.98;;
76196;SDS011;64974;53.144;17.962;2023-11-21T10:53:07;15.65;;;7.97;;
76196;SDS011;64974;53.144;17.962;2023-11-21T10:55:34;15.80;;;8.88;;
76196;SDS011;64974;53.144;17.962;2023-11-21T10:58:01;19.70;;;9.07;;
76196;SDS011;64974;53.144;17.962;2023-11-21T11:00:31;17.80;;;10.35;;
76196;SDS011;64974;53.144;17.962;2023-11-21T11:02:59;19.13;;;12.10;;
76196;SDS011;64974;53.144;17.962;2023-11-21T11:05:27;19.67;;;11.20;;
76196;SDS011;64974;53.144;17.962;2023-11-21T11:07:56;14.20;;;8.50;;
76196;SDS011;64974;53.144;17.962;2023-11-21T11:10:26;29.55;;;8.15;;
76196;SDS011;64974;53.144;17.962;2023-11-21T11:12:54;12.98;;;6.57;;
76196;SDS011;64974;53.144;17.962;2023-11-21T11:15:22;13.52;;;6.15;;
76196;SDS011;64974;53.144;17.962;2023-11-21T11:17:53;16.73;;;8.80;;
76196;SDS011;64974;53.144;17.962;2023-11-21T11:20:23;12.70;;;6.22;;
76196;SDS011;64974;53.144;17.962;2023-11-21T11:22:56;16.80;;;9.93;;
76196;SDS011;64974;53.144;17.962;2023-11-21T11:25:53;18.38;;;12.45;;
76196;SDS011;64974;53.144;17.962;2023-11-21T11:28:29;10.18;;;6.63;;
76196;SDS011;64974;53.144;17.962;2023-11-21T11:31:14;15.57;;;8.95;;
76196;SDS011;64974;53.144;17.962;2023-11-21T11:33:53;12.63;;;6.35;;
76196;SDS011;64974;53.144;17.962;2023-11-21T11:36:25;9.93;;;4.38;;
76196;SDS011;64974;53.144;17.962;2023-11-21T11:38:54;10.73;;;5.80;;
76196;SDS011;64974;53.144;17.962;2023-11-21T11:41:24;10.65;;;5.95;;
76196;SDS011;64974;53.144;17.962;2023-11-21T11:43:52;8.45;;;5.05;;
76196;SDS011;64974;53.144;17.962;2023-11-21T11:46:19;14.65;;;10.35;;
76196;SDS011;64974;53.144;17.962;2023-11-21T11:48:47;12.68;;;8.98;;
76196;SDS011;64974;53.144;17.962;2023-11-21T11:51:16;11.02;;;6.53;;
76196;SDS011;64974;53.144;17.962;2023-11-21T11:53:47;17.85;;;11.75;;
76196;SDS011;64974;53.144;17.962;2023-11-21T11:56:55;19.33;;;12.85;;
76196;SDS011;64974;53.144;17.962;2023-11-21T11:59:20;12.48;;;8.80;;
76196;SDS011;64974;53.144;17.962;2023-11-21T12:04:23;20.58;;;10.63;;
76196;SDS011;64974;53.144;17.962;2023-11-21T12:06:52;15.02;;;7.70;;
76196;SDS011;64974;53.144;17.962;2023-11-21T12:09:20;11.18;;;6.05;;
76196;SDS011;64974;53.144;17.962;2023-11-21T12:11:47;12.27;;;5.90;;
76196;SDS011;64974;53.144;17.962;2023-11-21T12:14:14;13.45;;;6.70;;
76196;SDS011;64974;53.144;17.962;2023-11-21T12:16:41;10.02;;;5.00;;
76196;SDS011;64974;53.144;17.962;2023-11-21T12:19:09;19.50;;;5.95;;
76196;SDS011;64974;53.144;17.962;2023-11-21T12:21:37;9.82;;;5.95;;
76196;SDS011;64974;53.144;17.962;2023-11-21T12:24:08;12.55;;;5.90;;
76196;SDS011;64974;53.144;17.962;2023-11-21T12:26:34;12.32;;;7.18;;
76196;SDS011;64974;53.144;17.962;2023-11-21T12:29:02;15.90;;;8.60;;
76196;SDS011;64974;53.144;17.962;2023-11-21T12:31:29;12.73;;;5.95;;
76196;SDS011;64974;53.144;17.962;2023-11-21T12:33:56;13.25;;;7.75;;
76196;SDS011;64974;53.144;17.962;2023-11-21T12:36:25;9.82;;;5.15;;
76196;SDS011;64974;53.144;17.962;2023-11-21T12:38:55;8.35;;;4.47;;
76196;SDS011;64974;53.144;17.962;2023-11-21T12:41:24;10.75;;;4.55;;
76196;SDS011;64974;53.144;17.962;2023-11-21T12:43:52;7.97;;;4.60;;
76196;SDS011;64974;53.144;17.962;2023-11-21T12:46:19;9.15;;;4.05;;
76196;SDS011;64974;53.144;17.962;2023-11-21T12:48:57;6.53;;;3.38;;
76196;SDS011;64974;53.144;17.962;2023-11-21T12:51:42;9.80;;;4.50;;
76196;SDS011;64974;53.144;17.962;2023-11-21T12:54:10;9.55;;;4.53;;
76196;SDS011;64974;53.144;17.962;2023-11-21T12:56:39;13.88;;;5.47;;
76196;SDS011;64974;53.144;17.962;2023-11-21T12:59:20;10.77;;;5.10;;
76196;SDS011;64974;53.144;17.962;2023-11-21T13:02:12;8.63;;;3.42;;
76196;SDS011;64974;53.144;17.962;2023-11-21T13:04:51;11.85;;;4.35;;
76196;SDS011;64974;53.144;17.962;2023-11-21T13:07:27;6.90;;;3.03;;
76196;SDS011;64974;53.144;17.962;2023-11-21T13:09:56;11.35;;;4.40;;
76196;SDS011;64974;53.144;17.962;2023-11-21T13:12:26;12.80;;;5.15;;
76196;SDS011;64974;53.144;17.962;2023-11-21T13:14:53;17.60;;;5.20;;
76196;SDS011;64974;53.144;17.962;2023-11-21T13:19:49;12.07;;;4.50;;
76196;SDS011;64974;53.144;17.962;2023-11-21T13:22:17;12.52;;;4.95;;
76196;SDS011;64974;53.144;17.962;2023-11-21T13:24:46;9.63;;;4.22;;
76196;SDS011;64974;53.144;17.962;2023-11-21T13:27:14;13.52;;;5.47;;
76196;SDS011;64974;53.144;17.962;2023-11-21T13:29:42;11.63;;;5.13;;
76196;SDS011;64974;53.144;17.962;2023-11-21T13:32:09;10.20;;;3.80;;
76196;SDS011;64974;53.144;17.962;2023-11-21T13:34:37;9.90;;;4.68;;
76196;SDS011;64974;53.144;17.962;2023-11-21T13:37:09;11.48;;;4.50;;
76196;SDS011;64974;53.144;17.962;2023-11-21T13:39:39;16.00;;;6.20;;
76196;SDS011;64974;53.144;17.962;2023-11-21T13:42:09;26.73;;;10.35;;
76196;SDS011;64974;53.144;17.962;2023-11-21T13:44:37;25.48;;;9.95;;
76196;SDS011;64974;53.144;17.962;2023-11-21T13:47:10;37.63;;;13.25;;
76196;SDS011;64974;53.144;17.962;2023-11-21T13:49:37;64.63;;;21.67;;
76196;SDS011;64974;53.144;17.962;2023-11-21T13:52:06;64.93;;;23.40;;
76196;SDS011;64974;53.144;17.962;2023-11-21T13:54:33;63.88;;;23.20;;
76196;SDS011;64974;53.144;17.962;2023-11-21T13:57:00;22.00;;;8.95;;
76196;SDS011;64974;53.144;17.962;2023-11-21T13:59:30;70.57;;;26.77;;
76196;SDS011;64974;53.144;17.962;2023-11-21T14:01:58;37.75;;;15.63;;
76196;SDS011;64974;53.144;17.962;2023-11-21T14:04:43;22.50;;;9.18;;
76196;SDS011;64974;53.144;17.962;2023-11-21T14:07:19;12.77;;;5.93;;
76196;SDS011;64974;53.144;17.962;2023-11-21T14:09:57;13.80;;;8.70;;
76196;SDS011;64974;53.144;17.962;2023-11-21T14:12:38;17.20;;;8.48;;
76196;SDS011;64974;53.144;17.962;2023-11-21T14:15:09;11.95;;;5.80;;
76196;SDS011;64974;53.144;17.962;2023-11-21T14:17:43;14.93;;;7.72;;
76196;SDS011;64974;53.144;17.962;2023-11-21T14:20:13;12.18;;;6.75;;
76196;SDS011;64974;53.144;17.962;2023-11-21T14:22:41;15.00;;;6.75;;
76196;SDS011;64974;53.144;17.962;2023-11-21T14:27:36;11.50;;;5.15;;
76196;SDS011;64974;53.144;17.962;2023-11-21T14:30:04;14.13;;;5.18;;
76196;SDS011;64974;53.144;17.962;2023-11-21T14:43:11;14.15;;;6.13;;
76196;SDS011;64974;53.144;17.962;2023-11-21T14:45:46;13.05;;;5.50;;
76196;SDS011;64974;53.144;17.962;2023-11-21T14:48:34;20.40;;;8.23;;
76196;SDS011;64974;53.144;17.962;2023-11-21T14:51:18;16.75;;;9.10;;
76196;SDS011;64974;53.144;17.962;2023-11-21T14:53:55;13.25;;;6.03;;
76196;SDS011;64974;53.144;17.962;2023-11-21T14:56:25;9.95;;;5.03;;
76196;SDS011;64974;53.144;17.962;2023-11-21T14:59:00;15.90;;;8.65;;
76196;SDS011;64974;53.144;17.962;2023-11-21T15:01:31;17.00;;;8.55;;
76196;SDS011;64974;53.144;17.962;2023-11-21T15:04:09;22.23;;;10.52;;
76196;SDS011;64974;53.144;17.962;2023-11-21T15:06:45;123.00;;;36.85;;
76196;SDS011;64974;53.144;17.962;2023-11-21T15:09:32;168.50;;;50.83;;
76196;SDS011;64974;53.144;17.962;2023-11-21T15:12:08;63.67;;;21.23;;
76196;SDS011;64974;53.144;17.962;2023-11-21T15:14:42;154.85;;;48.28;;
76196;SDS011;64974;53.144;17.962;2023-11-21T15:17:10;89.63;;;28.55;;
76196;SDS011;64974;53.144;17.962;2023-11-21T15:19:41;276.75;;;90.00;;
76196;SDS011;64974;53.144;17.962;2023-11-21T15:22:11;134.50;;;44.55;;
76196;SDS011;64974;53.144;17.962;2023-11-21T15:24:59;93.03;;;34.92;;
76196;SDS011;64974;53.144;17.962;2023-11-21T15:27:41;98.43;;;37.00;;
76196;SDS011;64974;53.144;17.962;2023-11-21T15:30:18;27.58;;;12.77;;
76196;SDS011;64974;53.144;17.962;2023-11-21T15:32:51;74.90;;;29.92;;
76196;SDS011;64974;53.144;17.962;2023-11-21T15:35:18;48.80;;;22.13;;
76196;SDS011;64974;53.144;17.962;2023-11-21T15:37:46;21.73;;;11.30;;
76196;SDS011;64974;53.144;17.962;2023-11-21T15:40:13;13.93;;;7.47;;
76196;SDS011;64974;53.144;17.962;2023-11-21T15:42:41;9.63;;;5.45;;
76196;SDS011;64974;53.144;17.962;2023-11-21T15:45:11;10.90;;;6.15;;
76196;SDS011;64974;53.144;17.962;2023-11-21T15:47:39;11.55;;;6.63;;
76196;SDS011;64974;53.144;17.962;2023-11-21T15:50:06;19.83;;;10.50;;